createdAt,value
2019-02-14T00:01:12.746Z,85.37
2019-02-14T00:04:19.625Z,85.43
2019-02-14T00:07:26.505Z,84.85
2019-02-14T00:10:33.432Z,85.76
2019-02-14T00:13:40.224Z,84.86
2019-02-14T00:16:47.185Z,84.98
2019-02-14T00:19:54.077Z,86.07
2019-02-14T00:23:00.917Z,85.85
2019-02-14T00:26:07.774Z,85.51
2019-02-14T00:29:14.669Z,86.74
2019-02-14T00:32:21.571Z,86.57
2019-02-14T00:35:28.533Z,86.31
2019-02-14T00:38:35.395Z,86.36
2019-02-14T00:41:42.483Z,86.83
2019-02-14T00:44:49.597Z,86.76
2019-02-14T00:47:56.501Z,86.76
2019-02-14T00:51:03.649Z,87.39
2019-02-14T00:54:10.772Z,87.27
2019-02-14T00:57:17.628Z,87.93
2019-02-14T01:00:24.640Z,87.88
2019-02-14T01:03:31.511Z,87.57
2019-02-14T01:06:39.727Z,88.46
2019-02-14T01:09:46.592Z,86.99
2019-02-14T01:12:53.484Z,86.58
2019-02-14T01:16:00.287Z,87.16
2019-02-14T01:19:07.125Z,86.49
2019-02-14T01:22:14.028Z,86.81
2019-02-14T01:25:20.859Z,87.05
2019-02-14T01:28:27.720Z,87.90
2019-02-14T01:31:34.648Z,87.28
2019-02-14T01:34:41.568Z,88.14
2019-02-14T01:37:48.442Z,88.63
2019-02-14T01:40:55.317Z,89.08
2019-02-14T01:44:02.628Z,88.41
2019-02-14T01:47:10.890Z,88.42
2019-02-14T01:50:17.899Z,87.98
2019-02-14T01:53:24.820Z,87.00
2019-02-14T01:56:31.783Z,88.05
2019-02-14T01:59:38.746Z,88.51
2019-02-14T02:02:45.817Z,87.75
2019-02-14T02:05:52.624Z,87.03
2019-02-14T02:08:59.751Z,87.92
2019-02-14T02:12:08.293Z,88.02
2019-02-14T02:15:16.171Z,87.75
2019-02-14T02:18:23.171Z,88.21
2019-02-14T02:21:30.097Z,89.19
2019-02-14T02:24:39.921Z,89.24
2019-02-14T02:27:49.167Z,88.99
2019-02-14T02:31:03.059Z,88.86
2019-02-14T02:34:11.597Z,89.66
2019-02-14T02:37:21.956Z,89.97
2019-02-14T02:40:31.976Z,89.42
2019-02-14T02:43:41.972Z,89.35
2019-02-14T02:46:52.519Z,89.81
2019-02-14T02:50:04.063Z,89.59
2019-02-14T02:53:13.451Z,88.91
2019-02-14T02:56:28.680Z,89.40
2019-02-14T02:59:38.695Z,90.05
2019-02-14T03:02:49.217Z,89.79
2019-02-14T03:05:59.268Z,89.71
2019-02-14T03:09:11.838Z,90.19
2019-02-14T03:12:42.557Z,89.09
2019-02-14T03:15:53.427Z,88.39
2019-02-14T03:19:01.783Z,88.62
2019-02-14T03:22:10.366Z,88.67
2019-02-14T03:25:22.242Z,88.21
2019-02-14T03:28:36.951Z,88.05
2019-02-14T03:31:52.394Z,87.66
2019-02-14T03:35:11.151Z,87.87
2019-02-14T03:38:22.343Z,87.95
2019-02-14T03:41:29.358Z,88.00
2019-02-14T03:44:37.675Z,87.88
2019-02-14T03:47:44.561Z,87.78
2019-02-14T03:50:52.648Z,88.09
2019-02-14T03:53:59.816Z,88.14
2019-02-14T03:57:06.659Z,89.00
2019-02-14T04:00:15.440Z,89.05
2019-02-14T04:03:22.618Z,89.18
2019-02-14T04:06:29.536Z,89.11
2019-02-14T04:09:36.443Z,89.38
2019-02-14T04:12:43.294Z,89.41
2019-02-14T04:15:50.295Z,89.05
2019-02-14T04:18:57.221Z,89.03
2019-02-14T04:22:04.053Z,88.71
2019-02-14T04:25:11.099Z,88.28
2019-02-14T04:28:19.221Z,88.13
2019-02-14T04:31:26.312Z,88.30
2019-02-14T04:34:33.220Z,88.59
2019-02-14T04:37:40.077Z,88.37
2019-02-14T04:40:47.335Z,88.62
2019-02-14T04:43:54.200Z,89.00
2019-02-14T04:47:01.117Z,89.72
2019-02-14T04:50:08.488Z,89.07
2019-02-14T04:53:15.666Z,88.74
2019-02-14T04:56:22.525Z,88.45
2019-02-14T04:59:29.846Z,88.03
2019-02-14T05:02:36.775Z,87.97
2019-02-14T05:05:43.694Z,88.11
2019-02-14T05:08:50.669Z,88.43
2019-02-14T05:11:57.669Z,88.15
2019-02-14T05:15:04.590Z,88.02
2019-02-14T05:18:11.505Z,87.85
2019-02-14T05:21:18.371Z,88.22
2019-02-14T05:24:25.394Z,88.84
2019-02-14T05:27:32.355Z,89.58
2019-02-14T05:30:39.195Z,88.67
2019-02-14T05:33:46.035Z,88.64
2019-02-14T05:36:55.235Z,89.34
2019-02-14T05:40:01.499Z,89.17
2019-02-14T05:43:08.606Z,90.74
2019-02-14T05:46:15.522Z,91.49
2019-02-14T05:49:22.541Z,89.02
2019-02-14T05:52:29.587Z,88.77
2019-02-14T05:55:36.882Z,88.50
2019-02-14T05:58:43.863Z,89.51
2019-02-14T06:01:51.339Z,90.83
2019-02-14T06:04:58.197Z,92.41
2019-02-14T06:08:05.169Z,91.90
2019-02-14T06:11:12.038Z,91.69
2019-02-14T06:14:18.861Z,91.73
2019-02-14T06:17:25.766Z,92.62
2019-02-14T06:20:32.924Z,91.34
2019-02-14T06:23:39.821Z,90.03
2019-02-14T06:26:46.647Z,89.51
2019-02-14T06:29:53.528Z,90.30
2019-02-14T06:33:00.350Z,90.24
2019-02-14T06:36:07.429Z,93.33
2019-02-14T06:39:14.428Z,93.91
2019-02-14T06:42:21.277Z,93.93
2019-02-14T06:45:28.532Z,93.08
2019-02-14T06:48:36.904Z,91.43
2019-02-14T06:51:43.817Z,91.20
2019-02-14T06:54:50.658Z,92.37
2019-02-14T06:57:57.690Z,92.78
2019-02-14T07:01:04.504Z,93.08
2019-02-14T07:04:11.368Z,92.82
2019-02-14T07:07:19.194Z,92.68
2019-02-14T07:10:26.338Z,92.70
2019-02-14T07:13:33.230Z,92.13
2019-02-14T07:16:40.154Z,93.35
2019-02-14T07:19:47.089Z,93.41
2019-02-14T07:22:54.109Z,93.99
2019-02-14T07:26:00.909Z,93.01
2019-02-14T07:29:07.800Z,93.14
2019-02-14T07:32:14.812Z,93.35
2019-02-14T07:35:21.816Z,92.08
2019-02-14T07:38:28.742Z,93.33
2019-02-14T07:41:35.841Z,92.04
2019-02-14T07:44:42.730Z,91.43
2019-02-14T07:47:49.551Z,92.51
2019-02-14T07:50:56.582Z,91.51
2019-02-14T07:54:03.480Z,92.57
2019-02-14T07:57:10.338Z,93.25
2019-02-14T08:00:18.473Z,92.98
2019-02-14T08:03:28.061Z,92.67
2019-02-14T08:06:37.743Z,93.10
2019-02-14T08:09:45.074Z,91.65
2019-02-14T08:12:52.180Z,92.54
2019-02-14T08:15:58.968Z,92.50
2019-02-14T08:19:05.876Z,90.49
2019-02-14T08:22:12.812Z,90.82
2019-02-14T08:25:19.821Z,90.92
2019-02-14T08:28:26.831Z,90.51
2019-02-14T08:31:33.736Z,89.96
2019-02-14T08:34:41.057Z,91.07
2019-02-14T08:37:48.364Z,90.90
2019-02-14T08:40:55.463Z,90.73
2019-02-14T08:44:02.567Z,90.61
2019-02-14T08:47:10.427Z,88.85
2019-02-14T08:50:17.860Z,87.63
2019-02-14T08:53:27.756Z,88.14
2019-02-14T08:56:34.698Z,87.75
2019-02-14T08:59:41.603Z,88.32
2019-02-14T09:02:48.810Z,88.49
2019-02-14T09:05:56.022Z,88.55
2019-02-14T09:09:03.715Z,86.75
2019-02-14T09:12:10.664Z,86.47
2019-02-14T09:15:17.524Z,85.54
2019-02-14T09:18:26.845Z,83.96
2019-02-14T09:21:34.170Z,85.67
2019-02-14T09:24:41.307Z,82.56
2019-02-14T09:27:48.181Z,81.66
2019-02-14T09:30:55.090Z,82.25
2019-02-14T09:34:02.370Z,78.07
2019-02-14T09:37:09.545Z,79.85
2019-02-14T09:40:16.845Z,77.06
2019-02-14T09:43:29.827Z,77.12
2019-02-14T09:46:33.543Z,77.40
2019-02-14T09:49:40.637Z,75.77
2019-02-14T09:52:48.494Z,75.84
2019-02-14T09:55:55.389Z,76.01
2019-02-14T09:59:02.223Z,75.12
2019-02-14T10:02:09.182Z,74.87
2019-02-14T10:05:19.844Z,74.52
2019-02-14T10:08:27.742Z,74.83
2019-02-14T10:11:34.696Z,73.82
2019-02-14T10:14:41.466Z,73.12
2019-02-14T10:17:48.352Z,73.08
2019-02-14T10:20:55.286Z,71.70
2019-02-14T10:24:02.921Z,68.43
2019-02-14T10:27:10.091Z,67.93
2019-02-14T10:30:19.024Z,68.90
2019-02-14T10:33:27.389Z,68.48
2019-02-14T10:36:34.303Z,66.44
2019-02-14T10:39:41.148Z,67.02
2019-02-14T10:42:48.513Z,65.96
2019-02-14T10:45:55.679Z,64.76
2019-02-14T10:49:02.889Z,65.58
2019-02-14T10:52:09.955Z,63.51
2019-02-14T10:55:17.207Z,64.21
2019-02-14T10:58:24.271Z,62.86
2019-02-14T11:01:31.310Z,62.49
2019-02-14T11:04:38.374Z,62.15
2019-02-14T11:07:45.497Z,61.50
2019-02-14T11:10:53.426Z,60.83
2019-02-14T11:14:00.445Z,62.20
2019-02-14T11:17:07.784Z,62.07
2019-02-14T11:20:15.297Z,61.33
2019-02-14T11:23:22.494Z,59.82
2019-02-14T11:26:29.396Z,61.03
2019-02-14T11:29:36.430Z,59.98
2019-02-14T11:32:43.629Z,60.44
2019-02-14T11:35:50.922Z,58.85
2019-02-14T11:38:58.390Z,59.91
2019-02-14T11:42:06.737Z,59.35
2019-02-14T11:45:16.933Z,58.63
2019-02-14T11:48:23.708Z,60.98
2019-02-14T11:51:30.543Z,61.11
2019-02-14T11:54:39.795Z,58.66
2019-02-14T11:57:46.889Z,59.14
2019-02-14T12:00:53.868Z,58.99
2019-02-14T12:04:00.696Z,58.99
2019-02-14T12:07:07.740Z,58.62
2019-02-14T12:10:15.938Z,58.18
2019-02-14T12:13:23.018Z,57.87
2019-02-14T12:16:29.955Z,55.84
2019-02-14T12:19:36.935Z,56.76
2019-02-14T12:22:46.569Z,58.60
2019-02-14T12:25:53.786Z,57.48
2019-02-14T12:29:00.705Z,56.42
2019-02-14T12:32:07.560Z,58.05
2019-02-14T12:35:16.995Z,56.21
2019-02-14T12:38:23.866Z,57.03
2019-02-14T12:41:30.757Z,56.23
2019-02-14T12:44:37.669Z,56.67
2019-02-14T12:47:45.086Z,56.08
2019-02-14T12:50:52.008Z,57.21
2019-02-14T12:53:58.841Z,55.89
2019-02-14T12:57:05.642Z,54.45
2019-02-14T13:00:17.392Z,54.56
2019-02-14T13:03:24.259Z,56.25
2019-02-14T13:06:31.140Z,55.70
2019-02-14T13:09:37.976Z,56.58
2019-02-14T13:12:46.821Z,57.69
2019-02-14T13:15:53.715Z,55.93
2019-02-14T13:19:00.750Z,55.19
2019-02-14T13:22:08.130Z,54.44
2019-02-14T13:25:15.100Z,52.79
2019-02-14T13:28:25.007Z,55.16
2019-02-14T13:31:32.607Z,55.64
2019-02-14T13:34:39.560Z,53.03
2019-02-14T13:37:47.791Z,54.53
2019-02-14T13:40:54.788Z,53.62
2019-02-14T13:44:01.739Z,53.50
2019-02-14T13:47:10.649Z,52.78
2019-02-14T13:50:18.874Z,52.83
2019-02-14T13:53:25.721Z,53.60
2019-02-14T13:56:35.791Z,54.17
2019-02-14T13:59:42.728Z,52.70
2019-02-14T14:02:49.551Z,54.67
2019-02-14T14:05:56.462Z,52.07
2019-02-14T14:09:03.579Z,53.27
2019-02-14T14:12:11.689Z,51.77
2019-02-14T14:15:18.922Z,52.27
2019-02-14T14:18:26.256Z,50.66
2019-02-14T14:21:34.033Z,49.80
2019-02-14T14:24:40.825Z,49.55
2019-02-14T14:27:47.838Z,49.66
2019-02-14T14:30:55.056Z,49.55
2019-02-14T14:34:01.965Z,49.35
2019-02-14T14:37:08.764Z,49.23
2019-02-14T14:40:20.813Z,50.47
2019-02-14T14:43:54.981Z,49.42
2019-02-14T14:47:04.917Z,49.91
2019-02-14T14:50:12.339Z,51.24
2019-02-14T14:53:19.740Z,50.68
2019-02-14T14:56:26.661Z,50.23
2019-02-14T14:59:33.610Z,51.02
2019-02-14T15:02:43.573Z,51.80
2019-02-14T15:05:50.423Z,51.17
2019-02-14T15:08:57.236Z,52.58
2019-02-14T15:12:04.391Z,51.79
2019-02-14T15:15:11.281Z,52.06
2019-02-14T15:18:18.542Z,51.84
2019-02-14T15:21:28.217Z,52.67
2019-02-14T15:24:35.250Z,52.87
2019-02-14T15:27:42.121Z,53.54
2019-02-14T15:30:49.026Z,53.47
2019-02-14T15:33:57.899Z,54.98
2019-02-14T15:37:04.588Z,55.29
2019-02-14T15:40:11.536Z,56.82
2019-02-14T15:43:18.700Z,56.69
2019-02-14T15:46:28.293Z,56.24
2019-02-14T15:49:35.098Z,56.33
2019-02-14T15:52:41.962Z,57.95
2019-02-14T15:55:48.868Z,60.23
2019-02-14T15:58:57.398Z,61.25
2019-02-14T16:02:06.165Z,61.78
2019-02-14T16:05:14.517Z,62.96
2019-02-14T16:08:23.917Z,63.26
2019-02-14T16:11:31.022Z,64.69
2019-02-14T16:14:38.247Z,65.95
2019-02-14T16:17:45.200Z,66.22
2019-02-14T16:20:52.321Z,66.97
2019-02-14T16:23:59.385Z,68.12
2019-02-14T16:27:06.477Z,67.92
2019-02-14T16:30:13.364Z,68.89
2019-02-14T16:33:20.312Z,68.00
2019-02-14T16:36:27.679Z,67.42
2019-02-14T16:39:34.773Z,67.40
2019-02-14T16:42:41.684Z,68.89
2019-02-14T16:45:48.909Z,70.19
2019-02-14T16:48:55.964Z,70.47
2019-02-14T16:52:03.290Z,70.15
2019-02-14T16:55:10.208Z,69.96
2019-02-14T16:58:17.097Z,70.77
2019-02-14T17:01:24.225Z,71.53
2019-02-14T17:04:32.820Z,72.53
2019-02-14T17:07:39.881Z,72.85
2019-02-14T17:10:46.970Z,73.15
2019-02-14T17:13:54.031Z,73.67
2019-02-14T17:17:01.300Z,72.33
2019-02-14T17:20:10.773Z,72.25
2019-02-14T17:23:18.198Z,72.00
2019-02-14T17:26:25.356Z,73.26
2019-02-14T17:29:33.425Z,72.87
2019-02-14T17:32:40.274Z,75.62
2019-02-14T17:35:47.318Z,80.17
2019-02-14T17:38:54.485Z,77.41
2019-02-14T17:42:01.479Z,78.31
2019-02-14T17:45:08.784Z,77.79
2019-02-14T17:48:18.380Z,76.84
2019-02-14T17:51:25.194Z,76.78
2019-02-14T17:54:32.131Z,77.48
2019-02-14T17:57:39.388Z,76.07
2019-02-14T18:00:46.844Z,77.30
2019-02-14T18:03:53.899Z,77.69
2019-02-14T18:07:00.802Z,77.61
2019-02-14T18:10:09.718Z,79.20
2019-02-14T18:13:16.709Z,80.30
2019-02-14T18:16:23.942Z,80.16
2019-02-14T18:19:30.893Z,81.71
2019-02-14T18:22:38.016Z,80.87
2019-02-14T18:25:46.034Z,81.74
2019-02-14T18:28:53.897Z,80.48
2019-02-14T18:32:01.015Z,80.57
2019-02-14T18:35:09.273Z,81.08
2019-02-14T18:38:16.707Z,81.92
2019-02-14T18:41:25.299Z,81.42
2019-02-14T18:44:32.788Z,81.79
2019-02-14T18:47:41.114Z,82.80
2019-02-14T18:50:48.549Z,82.01
2019-02-14T18:53:56.206Z,80.77
2019-02-14T18:57:03.207Z,80.12
2019-02-14T19:00:13.784Z,80.03
2019-02-14T19:03:20.746Z,79.93
2019-02-14T19:06:27.642Z,79.51
2019-02-14T19:09:35.086Z,79.63
2019-02-14T19:12:41.947Z,78.87
2019-02-14T19:15:49.302Z,78.71
2019-02-14T19:18:56.302Z,78.71
2019-02-14T19:22:03.704Z,78.26
2019-02-14T19:25:10.834Z,78.38
2019-02-14T19:28:19.381Z,78.08
2019-02-14T19:31:27.039Z,77.96
2019-02-14T19:34:34.086Z,77.73
2019-02-14T19:37:41.361Z,78.31
2019-02-14T19:40:48.360Z,79.21
2019-02-14T19:43:55.221Z,78.80
2019-02-14T19:47:02.233Z,79.02
2019-02-14T19:50:10.231Z,78.86
2019-02-14T19:53:18.408Z,79.12
2019-02-14T19:56:25.361Z,79.04
2019-02-14T19:59:32.302Z,78.87
2019-02-14T20:02:39.301Z,79.06
2019-02-14T20:05:46.315Z,79.03
2019-02-14T20:08:53.448Z,79.08
2019-02-14T20:12:00.823Z,79.67
2019-02-14T20:15:13.097Z,79.67
2019-02-14T20:18:20.083Z,79.99
2019-02-14T20:21:27.947Z,80.17
2019-02-14T20:24:34.959Z,81.06
2019-02-14T20:27:45.838Z,79.83
2019-02-14T20:30:53.446Z,81.10
2019-02-14T20:34:00.382Z,80.73
2019-02-14T20:37:07.447Z,80.55
2019-02-14T20:40:14.537Z,80.68
2019-02-14T20:43:21.444Z,80.87
2019-02-14T20:46:28.474Z,81.29
2019-02-14T20:49:36.379Z,81.41
2019-02-14T20:52:43.277Z,81.61
2019-02-14T20:55:50.400Z,81.57
2019-02-14T20:58:57.490Z,81.49
2019-02-14T21:02:06.511Z,81.35
2019-02-14T21:05:13.605Z,80.88
2019-02-14T21:08:20.489Z,81.18
2019-02-14T21:11:27.560Z,81.30
2019-02-14T21:14:34.615Z,81.90
2019-02-14T21:17:41.559Z,81.74
2019-02-14T21:20:48.502Z,81.64
2019-02-14T21:23:55.293Z,82.24
2019-02-14T21:27:03.360Z,82.27
2019-02-14T21:30:11.458Z,81.66
2019-02-14T21:33:19.683Z,82.32
2019-02-14T21:36:26.926Z,81.89
2019-02-14T21:39:33.982Z,82.36
2019-02-14T21:42:40.986Z,82.04
2019-02-14T21:45:47.961Z,82.27
2019-02-14T21:48:54.914Z,82.30
2019-02-14T21:52:03.065Z,83.19
2019-02-14T21:55:10.698Z,83.22
2019-02-14T21:58:17.640Z,82.39
2019-02-14T22:01:27.008Z,81.93
2019-02-14T22:04:34.064Z,81.90
2019-02-14T22:07:41.009Z,82.41
2019-02-14T22:10:47.904Z,81.89
2019-02-14T22:13:54.882Z,82.23
2019-02-14T22:17:04.108Z,82.41
2019-02-14T22:20:14.028Z,82.44
2019-02-14T22:23:21.201Z,82.73
2019-02-14T22:26:27.990Z,82.68
2019-02-14T22:29:34.955Z,82.71
2019-02-14T22:32:41.812Z,83.01
2019-02-14T22:35:49.808Z,82.99
2019-02-14T22:38:56.655Z,82.91
2019-02-14T22:42:06.173Z,82.81
2019-02-14T22:45:13.665Z,82.77
2019-02-14T22:48:20.791Z,82.89
2019-02-14T22:51:30.819Z,82.66
2019-02-14T22:54:37.767Z,83.25
2019-02-14T22:57:44.553Z,83.18
2019-02-14T23:00:59.694Z,83.15
2019-02-14T23:07:15.480Z,83.02
2019-02-14T23:10:23.113Z,83.13
2019-02-14T23:13:30.169Z,82.99
2019-02-14T23:16:37.178Z,83.31
2019-02-14T23:19:44.091Z,83.58
2019-02-14T23:22:50.921Z,83.64
2019-02-14T23:26:00.854Z,83.99
2019-02-14T23:29:09.796Z,83.09
2019-02-14T23:32:16.707Z,83.62
2019-02-14T23:35:23.582Z,83.70
2019-02-14T23:38:31.065Z,84.13
2019-02-14T23:41:38.117Z,84.37
2019-02-14T23:44:46.010Z,84.48
2019-02-14T23:47:52.803Z,84.68
2019-02-14T23:50:59.630Z,84.32
2019-02-14T23:54:11.051Z,84.84
2019-02-14T23:57:18.037Z,84.62
